sensor_id;sensor_type;location;lat;lon;timestamp;temperature;humidity
55711;DHT22;41612;51.994;5.880;2022-09-16T04:54:31;13.30;77.80
55711;DHT22;41612;51.994;5.880;2022-09-16T04:56:56;13.30;77.50
55711;DHT22;41612;51.994;5.880;2022-09-16T04:59:22;13.30;77.60
55711;DHT22;41612;51.994;5.880;2022-09-16T05:01:50;13.30;77.40
55711;DHT22;41612;51.994;5.880;2022-09-16T05:04:16;13.30;77.30
55711;DHT22;41612;51.994;5.880;2022-09-16T05:06:42;13.30;77.30
55711;DHT22;41612;51.994;5.880;2022-09-16T05:09:10;13.30;77.10
55711;DHT22;41612;51.994;5.880;2022-09-16T05:11:39;13.30;77.30
55711;DHT22;41612;51.994;5.880;2022-09-16T05:14:26;13.20;77.60
55711;DHT22;41612;51.994;5.880;2022-09-16T05:17:04;13.20;77.60
55711;DHT22;41612;51.994;5.880;2022-09-16T05:19:37;13.10;77.70
55711;DHT22;41612;51.994;5.880;2022-09-16T05:22:03;13.00;78.00
55711;DHT22;41612;51.994;5.880;2022-09-16T05:24:37;13.00;78.10
55711;DHT22;41612;51.994;5.880;2022-09-16T05:27:07;12.90;78.20
55711;DHT22;41612;51.994;5.880;2022-09-16T05:29:33;12.90;78.20
55711;DHT22;41612;51.994;5.880;2022-09-16T05:32:02;12.90;78.20
55711;DHT22;41612;51.994;5.880;2022-09-16T05:34:27;12.90;78.30
55711;DHT22;41612;51.994;5.880;2022-09-16T05:36:56;12.80;78.30
55711;DHT22;41612;51.994;5.880;2022-09-16T05:39:24;12.80;78.30
55711;DHT22;41612;51.994;5.880;2022-09-16T05:41:58;12.80;78.50
55711;DHT22;41612;51.994;5.880;2022-09-16T05:44:25;12.70;78.60
55711;DHT22;41612;51.994;5.880;2022-09-16T05:46:51;12.70;78.50
55711;DHT22;41612;51.994;5.880;2022-09-16T05:49:17;12.70;78.50
55711;DHT22;41612;51.994;5.880;2022-09-16T05:51:45;12.70;78.50
55711;DHT22;41612;51.994;5.880;2022-09-16T05:54:12;12.70;78.40
55711;DHT22;41612;51.994;5.880;2022-09-16T05:56:40;12.70;78.40
55711;DHT22;41612;51.994;5.880;2022-09-16T05:59:20;12.70;78.60
55711;DHT22;41612;51.994;5.880;2022-09-16T06:01:58;12.70;78.60
55711;DHT22;41612;51.994;5.880;2022-09-16T06:04:37;12.70;78.60
55711;DHT22;41612;51.994;5.880;2022-09-16T06:07:09;12.70;78.60
55711;DHT22;41612;51.994;5.880;2022-09-16T06:09:37;12.70;78.50
55711;DHT22;41612;51.994;5.880;2022-09-16T06:12:08;12.70;78.50
55711;DHT22;41612;51.994;5.880;2022-09-16T06:14:34;12.70;78.50
55711;DHT22;41612;51.994;5.880;2022-09-16T10:02:00;19.80;51.60
55711;DHT22;41612;51.994;5.880;2022-09-16T10:04:29;19.90;51.40
55711;DHT22;41612;51.994;5.880;2022-09-16T10:07:32;20.00;51.00
55711;DHT22;41612;51.994;5.880;2022-09-16T10:10:19;20.20;50.90
55711;DHT22;41612;51.994;5.880;2022-09-16T10:12:47;20.00;51.30
55711;DHT22;41612;51.994;5.880;2022-09-16T10:15:26;20.00;51.00
55711;DHT22;41612;51.994;5.880;2022-09-16T10:17:53;20.10;51.50
55711;DHT22;41612;51.994;5.880;2022-09-16T10:20:32;20.20;51.20
55711;DHT22;41612;51.994;5.880;2022-09-16T10:23:10;20.40;50.50
55711;DHT22;41612;51.994;5.880;2022-09-16T10:25:39;20.60;49.80
55711;DHT22;41612;51.994;5.880;2022-09-16T10:28:21;20.80;49.60
55711;DHT22;41612;51.994;5.880;2022-09-16T10:30:50;21.20;48.60
55711;DHT22;41612;51.994;5.880;2022-09-16T10:33:25;21.10;47.70
55711;DHT22;41612;51.994;5.880;2022-09-16T10:35:56;21.20;48.70
55711;DHT22;41612;51.994;5.880;2022-09-16T10:38:38;21.30;47.60
55711;DHT22;41612;51.994;5.880;2022-09-16T10:41:21;21.70;46.90
55711;DHT22;41612;51.994;5.880;2022-09-16T10:43:53;21.90;46.50
55711;DHT22;41612;51.994;5.880;2022-09-16T10:46:20;22.00;44.50
55711;DHT22;41612;51.994;5.880;2022-09-16T10:48:48;21.90;46.00
55711;DHT22;41612;51.994;5.880;2022-09-16T10:51:28;22.00;45.50
55711;DHT22;41612;51.994;5.880;2022-09-16T10:53:57;21.80;46.00
55711;DHT22;41612;51.994;5.880;2022-09-16T10:56:28;21.60;47.00
55711;DHT22;41612;51.994;5.880;2022-09-16T10:59:24;21.50;47.00
55711;DHT22;41612;51.994;5.880;2022-09-16T11:02:21;21.90;45.80
55711;DHT22;41612;51.994;5.880;2022-09-16T11:05:06;22.20;44.90
55711;DHT22;41612;51.994;5.880;2022-09-16T11:10:32;21.40;46.90
55711;DHT22;41612;51.994;5.880;2022-09-16T11:13:29;21.00;47.90
55711;DHT22;41612;51.994;5.880;2022-09-16T11:16:12;20.60;48.80
55711;DHT22;41612;51.994;5.880;2022-09-16T11:19:03;20.10;50.40
55711;DHT22;41612;51.994;5.880;2022-09-16T11:21:55;19.60;52.20
55711;DHT22;41612;51.994;5.880;2022-09-16T11:24:43;19.80;52.10
55711;DHT22;41612;51.994;5.880;2022-09-16T11:30:10;20.80;49.50
55711;DHT22;41612;51.994;5.880;2022-09-16T11:38:17;22.60;45.50
55711;DHT22;41612;51.994;5.880;2022-09-16T11:52:51;26.40;36.50
55711;DHT22;41612;51.994;5.880;2022-09-16T11:58:07;24.90;38.70
55711;DHT22;41612;51.994;5.880;2022-09-16T12:00:36;23.80;40.30
55711;DHT22;41612;51.994;5.880;2022-09-16T12:06:07;25.10;39.30
55711;DHT22;41612;51.994;5.880;2022-09-16T12:09:03;27.10;36.50
55711;DHT22;41612;51.994;5.880;2022-09-16T12:11:54;28.80;34.10
55711;DHT22;41612;51.994;5.880;2022-09-16T12:14:27;30.20;29.80
55711;DHT22;41612;51.994;5.880;2022-09-16T12:17:16;30.70;28.30
55711;DHT22;41612;51.994;5.880;2022-09-16T12:19:56;30.90;30.00
55711;DHT22;41612;51.994;5.880;2022-09-16T12:22:30;31.40;25.80
55711;DHT22;41612;51.994;5.880;2022-09-16T12:25:06;31.50;29.30
55711;DHT22;41612;51.994;5.880;2022-09-16T12:30:14;31.30;29.60
55711;DHT22;41612;51.994;5.880;2022-09-16T12:35:36;29.30;29.10
55711;DHT22;41612;51.994;5.880;2022-09-16T12:38:05;29.20;31.20
55711;DHT22;41612;51.994;5.880;2022-09-16T12:49:05;29.60;32.90
55711;DHT22;41612;51.994;5.880;2022-09-16T12:55:41;31.80;28.80
55711;DHT22;41612;51.994;5.880;2022-09-16T13:00:16;32.60;29.30
55711;DHT22;41612;51.994;5.880;2022-09-16T13:02:52;32.80;29.20
55711;DHT22;41612;51.994;5.880;2022-09-16T13:05:26;33.20;28.80
55711;DHT22;41612;51.994;5.880;2022-09-16T13:07:55;33.60;27.00
55711;DHT22;41612;51.994;5.880;2022-09-16T13:12:58;32.90;28.90
55711;DHT22;41612;51.994;5.880;2022-09-16T13:15:37;32.90;28.40
55711;DHT22;41612;51.994;5.880;2022-09-16T13:18:09;32.60;27.90
55711;DHT22;41612;51.994;5.880;2022-09-16T13:21:14;31.30;29.90
55711;DHT22;41612;51.994;5.880;2022-09-16T13:23:47;30.30;31.10
55711;DHT22;41612;51.994;5.880;2022-09-16T13:26:16;30.20;33.30
55711;DHT22;41612;51.994;5.880;2022-09-16T13:28:43;30.10;33.30
55711;DHT22;41612;51.994;5.880;2022-09-16T13:38:54;29.00;34.90
55711;DHT22;41612;51.994;5.880;2022-09-16T13:41:40;30.20;33.60
55711;DHT22;41612;51.994;5.880;2022-09-16T13:44:39;29.70;34.30
55711;DHT22;41612;51.994;5.880;2022-09-16T13:49:42;31.20;32.90
55711;DHT22;41612;51.994;5.880;2022-09-16T13:54:56;32.90;29.10
55711;DHT22;41612;51.994;5.880;2022-09-16T13:57:42;33.70;25.80
55711;DHT22;41612;51.994;5.880;2022-09-16T14:00:21;34.00;26.40
55711;DHT22;41612;51.994;5.880;2022-09-16T14:08:54;29.60;32.10
55711;DHT22;41612;51.994;5.880;2022-09-16T14:14:24;26.90;38.40
55711;DHT22;41612;51.994;5.880;2022-09-16T14:16:51;28.00;37.00
55711;DHT22;41612;51.994;5.880;2022-09-16T14:19:27;30.20;32.60
55711;DHT22;41612;51.994;5.880;2022-09-16T14:22:14;31.90;30.70
55711;DHT22;41612;51.994;5.880;2022-09-16T14:24:45;33.70;28.70
55711;DHT22;41612;51.994;5.880;2022-09-16T14:27:40;34.70;25.80
55711;DHT22;41612;51.994;5.880;2022-09-16T14:30:18;35.40;26.90
55711;DHT22;41612;51.994;5.880;2022-09-16T14:32:45;35.30;26.70
55711;DHT22;41612;51.994;5.880;2022-09-16T14:35:19;34.70;26.60
55711;DHT22;41612;51.994;5.880;2022-09-16T14:37:48;34.00;26.80
55711;DHT22;41612;51.994;5.880;2022-09-16T14:40:18;34.20;27.10
55711;DHT22;41612;51.994;5.880;2022-09-16T14:42:53;34.70;25.70
55711;DHT22;41612;51.994;5.880;2022-09-16T14:45:19;35.30;26.00
55711;DHT22;41612;51.994;5.880;2022-09-16T14:47:47;35.80;27.10
55711;DHT22;41612;51.994;5.880;2022-09-16T14:50:22;36.20;26.00
55711;DHT22;41612;51.994;5.880;2022-09-16T14:53:01;34.70;27.50
55711;DHT22;41612;51.994;5.880;2022-09-16T14:55:30;31.30;31.80
55711;DHT22;41612;51.994;5.880;2022-09-16T14:58:04;28.60;36.30
55711;DHT22;41612;51.994;5.880;2022-09-16T15:00:39;26.30;40.50
55711;DHT22;41612;51.994;5.880;2022-09-16T15:03:18;24.80;44.30
55711;DHT22;41612;51.994;5.880;2022-09-16T15:05:47;23.50;47.00
55711;DHT22;41612;51.994;5.880;2022-09-16T15:10:46;22.10;51.30
55711;DHT22;41612;51.994;5.880;2022-09-16T15:13:14;22.40;51.90
55711;DHT22;41612;51.994;5.880;2022-09-16T15:15:58;24.20;48.00
55711;DHT22;41612;51.994;5.880;2022-09-16T15:18:30;25.40;45.20
55711;DHT22;41612;51.994;5.880;2022-09-16T15:23:36;29.50;38.00
55711;DHT22;41612;51.994;5.880;2022-09-16T15:26:22;31.30;35.00
55711;DHT22;41612;51.994;5.880;2022-09-16T15:31:43;33.80;30.80
55711;DHT22;41612;51.994;5.880;2022-09-16T15:34:22;34.20;29.30
55711;DHT22;41612;51.994;5.880;2022-09-16T15:36:57;34.60;29.40
55711;DHT22;41612;51.994;5.880;2022-09-16T15:39:31;34.70;28.30
55711;DHT22;41612;51.994;5.880;2022-09-16T15:42:17;34.70;28.60
55711;DHT22;41612;51.994;5.880;2022-09-16T15:44:55;34.40;27.70
55711;DHT22;41612;51.994;5.880;2022-09-16T15:47:30;34.20;28.60
55711;DHT22;41612;51.994;5.880;2022-09-16T15:50:12;33.70;29.50
55711;DHT22;41612;51.994;5.880;2022-09-16T15:53:00;31.50;32.20
55711;DHT22;41612;51.994;5.880;2022-09-16T16:01:02;26.70;40.40
55711;DHT22;41612;51.994;5.880;2022-09-16T16:06:10;28.30;38.20
55711;DHT22;41612;51.994;5.880;2022-09-16T16:08:46;29.30;36.40
55711;DHT22;41612;51.994;5.880;2022-09-16T16:11:18;30.20;35.00
55711;DHT22;41612;51.994;5.880;2022-09-16T16:13:45;30.90;34.00
55711;DHT22;41612;51.994;5.880;2022-09-16T16:16:13;31.40;31.90
55711;DHT22;41612;51.994;5.880;2022-09-16T16:18:40;31.50;31.30
55711;DHT22;41612;51.994;5.880;2022-09-16T16:21:09;30.70;33.30
55711;DHT22;41612;51.994;5.880;2022-09-16T16:23:35;29.10;35.80
55711;DHT22;41612;51.994;5.880;2022-09-16T17:23:50;18.70;59.80
55711;DHT22;41612;51.994;5.880;2022-09-16T17:26:22;18.60;60.30
55711;DHT22;41612;51.994;5.880;2022-09-16T17:28:52;18.50;60.90
55711;DHT22;41612;51.994;5.880;2022-09-16T17:31:31;18.50;61.50
55711;DHT22;41612;51.994;5.880;2022-09-16T17:33:59;18.40;59.70
55711;DHT22;41612;51.994;5.880;2022-09-16T17:36:30;18.20;58.80
55711;DHT22;41612;51.994;5.880;2022-09-16T17:39:09;18.00;60.80
55711;DHT22;41612;51.994;5.880;2022-09-16T17:41:38;17.80;62.00
55711;DHT22;41612;51.994;5.880;2022-09-16T17:47:01;17.70;62.40
55711;DHT22;41612;51.994;5.880;2022-09-16T17:49:42;17.60;63.80
55711;DHT22;41612;51.994;5.880;2022-09-16T17:52:19;17.40;63.80
55711;DHT22;41612;51.994;5.880;2022-09-16T17:55:00;17.30;62.80
55711;DHT22;41612;51.994;5.880;2022-09-16T18:01:01;17.00;63.10
55711;DHT22;41612;51.994;5.880;2022-09-16T18:04:07;16.90;65.50
55711;DHT22;41612;51.994;5.880;2022-09-16T19:39:49;15.30;69.10
55711;DHT22;41612;51.994;5.880;2022-09-16T19:42:15;15.30;68.50
55711;DHT22;41612;51.994;5.880;2022-09-16T19:44:40;15.30;69.20
55711;DHT22;41612;51.994;5.880;2022-09-16T19:47:06;15.30;68.70
55711;DHT22;41612;51.994;5.880;2022-09-16T19:49:32;15.30;68.40
55711;DHT22;41612;51.994;5.880;2022-09-16T19:51:57;15.30;69.10
55711;DHT22;41612;51.994;5.880;2022-09-16T19:54:23;15.40;69.50
55711;DHT22;41612;51.994;5.880;2022-09-16T19:56:49;15.40;69.40
55711;DHT22;41612;51.994;5.880;2022-09-16T19:59:15;15.40;69.30
55711;DHT22;41612;51.994;5.880;2022-09-16T20:01:41;15.50;69.00
55711;DHT22;41612;51.994;5.880;2022-09-16T20:04:07;15.40;68.80
55711;DHT22;41612;51.994;5.880;2022-09-16T20:06:38;15.50;69.10
55711;DHT22;41612;51.994;5.880;2022-09-16T20:09:08;15.40;69.20
55711;DHT22;41612;51.994;5.880;2022-09-16T20:11:38;15.40;68.60
55711;DHT22;41612;51.994;5.880;2022-09-16T20:14:09;15.30;69.00
55711;DHT22;41612;51.994;5.880;2022-09-16T20:16:37;15.30;69.40
55711;DHT22;41612;51.994;5.880;2022-09-16T20:19:05;15.20;69.70
55711;DHT22;41612;51.994;5.880;2022-09-16T20:21:32;15.20;69.70
55711;DHT22;41612;51.994;5.880;2022-09-16T20:24:00;15.20;69.40
55711;DHT22;41612;51.994;5.880;2022-09-16T20:26:26;15.20;69.50
55711;DHT22;41612;51.994;5.880;2022-09-16T20:28:53;15.20;69.60
55711;DHT22;41612;51.994;5.880;2022-09-16T20:31:24;15.20;69.20
55711;DHT22;41612;51.994;5.880;2022-09-16T20:33:50;15.20;69.00
55711;DHT22;41612;51.994;5.880;2022-09-16T20:36:20;15.20;68.80
55711;DHT22;41612;51.994;5.880;2022-09-16T20:38:47;15.20;68.70
55711;DHT22;41612;51.994;5.880;2022-09-16T20:41:18;15.20;68.40
55711;DHT22;41612;51.994;5.880;2022-09-16T20:43:45;15.20;68.60
55711;DHT22;41612;51.994;5.880;2022-09-16T20:46:14;15.20;69.00
55711;DHT22;41612;51.994;5.880;2022-09-16T20:48:40;15.20;68.60
55711;DHT22;41612;51.994;5.880;2022-09-16T20:51:12;15.20;68.30
55711;DHT22;41612;51.994;5.880;2022-09-16T20:53:39;15.20;68.30
55711;DHT22;41612;51.994;5.880;2022-09-16T20:56:08;15.20;68.50
55711;DHT22;41612;51.994;5.880;2022-09-16T20:58:35;15.20;68.90
55711;DHT22;41612;51.994;5.880;2022-09-16T21:03:37;15.10;68.90
55711;DHT22;41612;51.994;5.880;2022-09-16T21:06:09;15.00;69.00
55711;DHT22;41612;51.994;5.880;2022-09-16T21:08:35;15.00;68.90
55711;DHT22;41612;51.994;5.880;2022-09-16T21:11:16;15.00;69.20
55711;DHT22;41612;51.994;5.880;2022-09-16T21:13:45;15.00;69.30
55711;DHT22;41612;51.994;5.880;2022-09-16T21:16:13;15.00;69.30
55711;DHT22;41612;51.994;5.880;2022-09-16T21:18:40;15.10;69.20
55711;DHT22;41612;51.994;5.880;2022-09-16T21:21:17;15.10;69.10
55711;DHT22;41612;51.994;5.880;2022-09-16T21:23:48;15.10;69.00
55711;DHT22;41612;51.994;5.880;2022-09-16T21:26:16;15.10;68.90
55711;DHT22;41612;51.994;5.880;2022-09-16T21:28:43;15.10;69.00
55711;DHT22;41612;51.994;5.880;2022-09-16T21:31:12;15.10;68.90
55711;DHT22;41612;51.994;5.880;2022-09-16T21:33:39;15.10;68.80
55711;DHT22;41612;51.994;5.880;2022-09-16T21:36:07;15.10;68.90
55711;DHT22;41612;51.994;5.880;2022-09-16T21:38:33;15.00;69.00
55711;DHT22;41612;51.994;5.880;2022-09-16T21:41:04;15.00;69.00
55711;DHT22;41612;51.994;5.880;2022-09-16T21:43:40;15.10;68.90
55711;DHT22;41612;51.994;5.880;2022-09-16T21:46:15;15.10;68.80
55711;DHT22;41612;51.994;5.880;2022-09-16T21:48:41;15.10;68.80
55711;DHT22;41612;51.994;5.880;2022-09-16T21:51:09;15.10;68.60
55711;DHT22;41612;51.994;5.880;2022-09-16T21:53:39;15.00;68.10
55711;DHT22;41612;51.994;5.880;2022-09-16T21:56:19;15.00;68.40
55711;DHT22;41612;51.994;5.880;2022-09-16T21:58:46;15.00;68.40
55711;DHT22;41612;51.994;5.880;2022-09-16T22:01:21;14.90;68.40
55711;DHT22;41612;51.994;5.880;2022-09-16T22:03:52;14.90;68.40
55711;DHT22;41612;51.994;5.880;2022-09-16T22:06:18;14.80;68.30
55711;DHT22;41612;51.994;5.880;2022-09-16T22:08:47;14.80;68.60
55711;DHT22;41612;51.994;5.880;2022-09-16T22:11:14;14.70;68.80
55711;DHT22;41612;51.994;5.880;2022-09-16T22:13:41;14.70;69.00
55711;DHT22;41612;51.994;5.880;2022-09-16T22:16:10;14.70;69.20
55711;DHT22;41612;51.994;5.880;2022-09-16T22:18:36;14.70;69.20
55711;DHT22;41612;51.994;5.880;2022-09-16T22:21:08;14.60;69.20
55711;DHT22;41612;51.994;5.880;2022-09-16T22:23:36;14.60;69.50
55711;DHT22;41612;51.994;5.880;2022-09-16T22:26:16;14.70;69.50
55711;DHT22;41612;51.994;5.880;2022-09-16T22:28:42;14.70;69.10
55711;DHT22;41612;51.994;5.880;2022-09-16T22:31:10;14.60;69.30
55711;DHT22;41612;51.994;5.880;2022-09-16T22:33:38;14.50;68.70
55711;DHT22;41612;51.994;5.880;2022-09-16T22:36:10;14.40;68.70
55711;DHT22;41612;51.994;5.880;2022-09-16T22:38:37;14.30;69.50
55711;DHT22;41612;51.994;5.880;2022-09-16T22:41:05;14.30;69.60
55711;DHT22;41612;51.994;5.880;2022-09-16T22:43:38;14.20;69.60
55711;DHT22;41612;51.994;5.880;2022-09-16T22:46:06;14.10;69.70
55711;DHT22;41612;51.994;5.880;2022-09-16T22:48:32;14.10;69.90
55711;DHT22;41612;51.994;5.880;2022-09-16T22:50:59;14.00;70.20
55711;DHT22;41612;51.994;5.880;2022-09-16T22:53:26;14.00;70.50
55711;DHT22;41612;51.994;5.880;2022-09-16T22:55:57;13.90;70.30
55711;DHT22;41612;51.994;5.880;2022-09-16T22:58:23;13.90;70.20
55711;DHT22;41612;51.994;5.880;2022-09-16T23:00:49;13.90;70.50
55711;DHT22;41612;51.994;5.880;2022-09-16T23:03:17;13.90;71.00
55711;DHT22;41612;51.994;5.880;2022-09-16T23:05:52;13.90;71.20
55711;DHT22;41612;51.994;5.880;2022-09-16T23:08:18;13.90;70.50
55711;DHT22;41612;51.994;5.880;2022-09-16T23:10:43;13.80;70.90
55711;DHT22;41612;51.994;5.880;2022-09-16T23:13:09;13.80;70.80
55711;DHT22;41612;51.994;5.880;2022-09-16T23:15:37;13.70;71.50
55711;DHT22;41612;51.994;5.880;2022-09-16T23:18:04;13.70;72.00
55711;DHT22;41612;51.994;5.880;2022-09-16T23:20:30;13.70;72.40
55711;DHT22;41612;51.994;5.880;2022-09-16T23:22:56;13.60;72.40
55711;DHT22;41612;51.994;5.880;2022-09-16T23:25:23;13.60;72.50
55711;DHT22;41612;51.994;5.880;2022-09-16T23:27:49;13.50;72.50
55711;DHT22;41612;51.994;5.880;2022-09-16T23:30:15;13.50;72.30
55711;DHT22;41612;51.994;5.880;2022-09-16T23:32:41;13.50;72.60
55711;DHT22;41612;51.994;5.880;2022-09-16T23:35:07;13.40;72.10
55711;DHT22;41612;51.994;5.880;2022-09-16T23:37:33;13.40;72.40
55711;DHT22;41612;51.994;5.880;2022-09-16T23:39:58;13.40;72.50
55711;DHT22;41612;51.994;5.880;2022-09-16T23:42:25;13.30;72.70
55711;DHT22;41612;51.994;5.880;2022-09-16T23:44:52;13.30;73.00
55711;DHT22;41612;51.994;5.880;2022-09-16T23:47:17;13.30;73.00
55711;DHT22;41612;51.994;5.880;2022-09-16T23:49:44;13.30;73.30
55711;DHT22;41612;51.994;5.880;2022-09-16T23:52:09;13.40;73.40
55711;DHT22;41612;51.994;5.880;2022-09-16T23:54:36;13.50;73.50
55711;DHT22;41612;51.994;5.880;2022-09-16T23:57:02;13.60;73.20
55711;DHT22;41612;51.994;5.880;2022-09-16T23:59:28;13.70;72.80
